sensor_id;sensor_type;location;lat;lon;timestamp;P1;durP1;ratioP1;P2;durP2;ratioP2
73089;SDS011;61269;49.450;8.610;2023-02-15T00:02:06;39.37;;;14.83;;
73089;SDS011;61269;49.450;8.610;2023-02-15T00:04:34;38.45;;;15.10;;
73089;SDS011;61269;49.450;8.610;2023-02-15T00:07:15;42.00;;;15.27;;
73089;SDS011;61269;49.450;8.610;2023-02-15T00:09:44;48.78;;;16.58;;
73089;SDS011;61269;49.450;8.610;2023-02-15T00:12:14;52.08;;;15.77;;
73089;SDS011;61269;49.450;8.610;2023-02-15T00:14:43;47.50;;;13.87;;
73089;SDS011;61269;49.450;8.610;2023-02-15T00:17:11;54.90;;;15.45;;
73089;SDS011;61269;49.450;8.610;2023-02-15T00:19:39;47.95;;;16.02;;
73089;SDS011;61269;49.450;8.610;2023-02-15T00:22:08;47.35;;;16.40;;
73089;SDS011;61269;49.450;8.610;2023-02-15T00:24:36;45.78;;;16.85;;
73089;SDS011;61269;49.450;8.610;2023-02-15T00:27:04;40.37;;;16.30;;
73089;SDS011;61269;49.450;8.610;2023-02-15T00:29:33;45.78;;;16.77;;
73089;SDS011;61269;49.450;8.610;2023-02-15T00:32:02;52.20;;;17.55;;
73089;SDS011;61269;49.450;8.610;2023-02-15T00:34:30;47.95;;;16.92;;
73089;SDS011;61269;49.450;8.610;2023-02-15T00:36:58;46.13;;;17.13;;
73089;SDS011;61269;49.450;8.610;2023-02-15T00:39:26;40.27;;;15.97;;
73089;SDS011;61269;49.450;8.610;2023-02-15T00:41:55;43.00;;;17.35;;
73089;SDS011;61269;49.450;8.610;2023-02-15T00:44:23;45.53;;;15.27;;
73089;SDS011;61269;49.450;8.610;2023-02-15T00:46:54;43.85;;;16.42;;
73089;SDS011;61269;49.450;8.610;2023-02-15T00:49:22;54.53;;;18.67;;
73089;SDS011;61269;49.450;8.610;2023-02-15T00:51:50;51.37;;;18.33;;
73089;SDS011;61269;49.450;8.610;2023-02-15T00:54:18;50.00;;;18.30;;
73089;SDS011;61269;49.450;8.610;2023-02-15T00:56:47;42.28;;;16.23;;
73089;SDS011;61269;49.450;8.610;2023-02-15T00:59:15;49.97;;;17.45;;
73089;SDS011;61269;49.450;8.610;2023-02-15T01:01:43;45.35;;;16.27;;
73089;SDS011;61269;49.450;8.610;2023-02-15T01:04:13;40.07;;;15.63;;
73089;SDS011;61269;49.450;8.610;2023-02-15T01:06:41;42.92;;;14.73;;
73089;SDS011;61269;49.450;8.610;2023-02-15T01:09:09;36.85;;;14.68;;
73089;SDS011;61269;49.450;8.610;2023-02-15T01:11:39;34.25;;;14.68;;
73089;SDS011;61269;49.450;8.610;2023-02-15T01:14:07;37.47;;;14.15;;
73089;SDS011;61269;49.450;8.610;2023-02-15T01:16:38;33.87;;;13.13;;
73089;SDS011;61269;49.450;8.610;2023-02-15T01:19:06;36.13;;;13.55;;
73089;SDS011;61269;49.450;8.610;2023-02-15T01:21:35;35.28;;;13.93;;
73089;SDS011;61269;49.450;8.610;2023-02-15T01:24:04;34.75;;;13.68;;
73089;SDS011;61269;49.450;8.610;2023-02-15T01:26:32;38.95;;;14.65;;
73089;SDS011;61269;49.450;8.610;2023-02-15T01:29:00;34.17;;;14.23;;
73089;SDS011;61269;49.450;8.610;2023-02-15T01:31:29;35.85;;;14.30;;
73089;SDS011;61269;49.450;8.610;2023-02-15T01:33:57;33.67;;;13.80;;
73089;SDS011;61269;49.450;8.610;2023-02-15T01:36:26;33.38;;;14.00;;
73089;SDS011;61269;49.450;8.610;2023-02-15T01:38:55;36.78;;;13.80;;
73089;SDS011;61269;49.450;8.610;2023-02-15T01:41:24;34.07;;;13.70;;
73089;SDS011;61269;49.450;8.610;2023-02-15T01:43:54;32.47;;;14.07;;
73089;SDS011;61269;49.450;8.610;2023-02-15T01:46:26;36.05;;;13.88;;
73089;SDS011;61269;49.450;8.610;2023-02-15T01:48:57;33.70;;;13.77;;
73089;SDS011;61269;49.450;8.610;2023-02-15T01:51:29;37.80;;;13.07;;
73089;SDS011;61269;49.450;8.610;2023-02-15T01:54:01;35.40;;;14.07;;
73089;SDS011;61269;49.450;8.610;2023-02-15T01:59:37;32.15;;;12.65;;
73089;SDS011;61269;49.450;8.610;2023-02-15T02:11:47;31.13;;;13.00;;
73089;SDS011;61269;49.450;8.610;2023-02-15T02:14:15;39.67;;;14.13;;
73089;SDS011;61269;49.450;8.610;2023-02-15T02:16:46;34.70;;;14.05;;
73089;SDS011;61269;49.450;8.610;2023-02-15T02:22:43;35.05;;;13.88;;
73089;SDS011;61269;49.450;8.610;2023-02-15T02:25:30;31.17;;;13.50;;
73089;SDS011;61269;49.450;8.610;2023-02-15T02:28:16;31.10;;;13.73;;
73089;SDS011;61269;49.450;8.610;2023-02-15T02:30:59;33.53;;;12.30;;
73089;SDS011;61269;49.450;8.610;2023-02-15T02:33:48;29.38;;;12.68;;
73089;SDS011;61269;49.450;8.610;2023-02-15T02:36:24;29.65;;;12.60;;
73089;SDS011;61269;49.450;8.610;2023-02-15T02:39:07;30.33;;;12.70;;
73089;SDS011;61269;49.450;8.610;2023-02-15T02:41:43;30.98;;;13.05;;
73089;SDS011;61269;49.450;8.610;2023-02-15T02:44:21;36.90;;;13.93;;
73089;SDS011;61269;49.450;8.610;2023-02-15T02:46:51;32.17;;;12.57;;
73089;SDS011;61269;49.450;8.610;2023-02-15T02:49:33;32.38;;;13.95;;
73089;SDS011;61269;49.450;8.610;2023-02-15T02:52:03;34.10;;;13.33;;
73089;SDS011;61269;49.450;8.610;2023-02-15T02:54:32;32.20;;;13.00;;
73089;SDS011;61269;49.450;8.610;2023-02-15T02:57:03;32.50;;;13.07;;
73089;SDS011;61269;49.450;8.610;2023-02-15T02:59:35;32.75;;;13.18;;
73089;SDS011;61269;49.450;8.610;2023-02-15T03:02:07;30.90;;;12.57;;
73089;SDS011;61269;49.450;8.610;2023-02-15T03:04:42;26.80;;;11.43;;
73089;SDS011;61269;49.450;8.610;2023-02-15T03:07:14;27.67;;;11.95;;
73089;SDS011;61269;49.450;8.610;2023-02-15T03:09:49;31.80;;;13.93;;
73089;SDS011;61269;49.450;8.610;2023-02-15T03:12:19;33.47;;;13.32;;
73089;SDS011;61269;49.450;8.610;2023-02-15T03:14:50;38.28;;;14.50;;
73089;SDS011;61269;49.450;8.610;2023-02-15T03:17:20;37.93;;;14.63;;
73089;SDS011;61269;49.450;8.610;2023-02-15T03:19:52;34.85;;;13.77;;
73089;SDS011;61269;49.450;8.610;2023-02-15T03:22:23;32.78;;;13.40;;
73089;SDS011;61269;49.450;8.610;2023-02-15T03:24:55;33.97;;;13.98;;
73089;SDS011;61269;49.450;8.610;2023-02-15T03:27:25;37.53;;;14.30;;
73089;SDS011;61269;49.450;8.610;2023-02-15T03:29:56;35.27;;;13.70;;
73089;SDS011;61269;49.450;8.610;2023-02-15T03:32:27;32.85;;;13.57;;
73089;SDS011;61269;49.450;8.610;2023-02-15T03:34:57;34.72;;;13.65;;
73089;SDS011;61269;49.450;8.610;2023-02-15T03:37:26;33.40;;;13.68;;
73089;SDS011;61269;49.450;8.610;2023-02-15T03:39:58;32.58;;;13.00;;
73089;SDS011;61269;49.450;8.610;2023-02-15T03:42:49;35.13;;;13.73;;
73089;SDS011;61269;49.450;8.610;2023-02-15T03:45:22;36.17;;;13.98;;
73089;SDS011;61269;49.450;8.610;2023-02-15T03:47:52;35.30;;;14.85;;
73089;SDS011;61269;49.450;8.610;2023-02-15T03:50:24;33.08;;;14.40;;
73089;SDS011;61269;49.450;8.610;2023-02-15T03:53:13;35.85;;;13.48;;
73089;SDS011;61269;49.450;8.610;2023-02-15T03:55:42;35.77;;;14.17;;
73089;SDS011;61269;49.450;8.610;2023-02-15T03:58:14;32.28;;;13.73;;
73089;SDS011;61269;49.450;8.610;2023-02-15T04:01:09;36.85;;;14.18;;
73089;SDS011;61269;49.450;8.610;2023-02-15T04:03:59;32.83;;;13.15;;
73089;SDS011;61269;49.450;8.610;2023-02-15T04:06:30;37.33;;;14.57;;
73089;SDS011;61269;49.450;8.610;2023-02-15T04:08:58;36.13;;;13.83;;
73089;SDS011;61269;49.450;8.610;2023-02-15T04:11:44;34.45;;;13.40;;
73089;SDS011;61269;49.450;8.610;2023-02-15T04:14:12;34.85;;;13.85;;
73089;SDS011;61269;49.450;8.610;2023-02-15T04:16:58;34.97;;;14.35;;
73089;SDS011;61269;49.450;8.610;2023-02-15T04:19:26;30.52;;;12.27;;
73089;SDS011;61269;49.450;8.610;2023-02-15T04:22:14;34.50;;;13.60;;
73089;SDS011;61269;49.450;8.610;2023-02-15T04:24:59;33.03;;;13.75;;
73089;SDS011;61269;49.450;8.610;2023-02-15T04:27:40;35.15;;;13.77;;
73089;SDS011;61269;49.450;8.610;2023-02-15T04:30:11;32.50;;;13.30;;
73089;SDS011;61269;49.450;8.610;2023-02-15T04:32:40;36.30;;;14.07;;
73089;SDS011;61269;49.450;8.610;2023-02-15T04:35:08;32.23;;;13.90;;
73089;SDS011;61269;49.450;8.610;2023-02-15T04:37:38;32.97;;;13.25;;
73089;SDS011;61269;49.450;8.610;2023-02-15T04:40:07;30.40;;;13.82;;
73089;SDS011;61269;49.450;8.610;2023-02-15T04:42:36;25.27;;;11.32;;
73089;SDS011;61269;49.450;8.610;2023-02-15T04:45:05;28.33;;;11.88;;
73089;SDS011;61269;49.450;8.610;2023-02-15T04:47:34;27.73;;;11.30;;
73089;SDS011;61269;49.450;8.610;2023-02-15T04:50:02;28.67;;;12.10;;
73089;SDS011;61269;49.450;8.610;2023-02-15T04:52:31;25.98;;;11.43;;
73089;SDS011;61269;49.450;8.610;2023-02-15T04:55:00;25.77;;;11.63;;
73089;SDS011;61269;49.450;8.610;2023-02-15T04:57:28;25.92;;;11.82;;
73089;SDS011;61269;49.450;8.610;2023-02-15T04:59:56;27.30;;;11.50;;
73089;SDS011;61269;49.450;8.610;2023-02-15T05:02:25;26.67;;;11.40;;
73089;SDS011;61269;49.450;8.610;2023-02-15T05:04:54;24.52;;;11.18;;
73089;SDS011;61269;49.450;8.610;2023-02-15T05:07:22;25.33;;;11.48;;
73089;SDS011;61269;49.450;8.610;2023-02-15T05:09:50;24.50;;;11.65;;
73089;SDS011;61269;49.450;8.610;2023-02-15T05:12:20;23.33;;;10.47;;
73089;SDS011;61269;49.450;8.610;2023-02-15T05:14:48;27.42;;;11.32;;
73089;SDS011;61269;49.450;8.610;2023-02-15T05:17:16;26.60;;;11.10;;
73089;SDS011;61269;49.450;8.610;2023-02-15T05:19:44;26.30;;;11.40;;
73089;SDS011;61269;49.450;8.610;2023-02-15T05:22:12;26.13;;;11.35;;
73089;SDS011;61269;49.450;8.610;2023-02-15T05:24:40;23.20;;;10.23;;
73089;SDS011;61269;49.450;8.610;2023-02-15T05:27:27;25.70;;;11.10;;
73089;SDS011;61269;49.450;8.610;2023-02-15T05:30:13;25.35;;;10.40;;
73089;SDS011;61269;49.450;8.610;2023-02-15T05:32:42;24.35;;;10.85;;
73089;SDS011;61269;49.450;8.610;2023-02-15T05:35:11;21.90;;;10.05;;
73089;SDS011;61269;49.450;8.610;2023-02-15T05:37:41;20.73;;;10.20;;
73089;SDS011;61269;49.450;8.610;2023-02-15T05:40:09;25.38;;;11.10;;
73089;SDS011;61269;49.450;8.610;2023-02-15T05:42:39;21.45;;;9.93;;
73089;SDS011;61269;49.450;8.610;2023-02-15T05:45:08;21.13;;;9.35;;
73089;SDS011;61269;49.450;8.610;2023-02-15T05:47:36;20.42;;;9.25;;
73089;SDS011;61269;49.450;8.610;2023-02-15T05:50:05;22.20;;;11.10;;
73089;SDS011;61269;49.450;8.610;2023-02-15T05:52:34;23.65;;;11.45;;
73089;SDS011;61269;49.450;8.610;2023-02-15T05:55:02;23.05;;;10.63;;
73089;SDS011;61269;49.450;8.610;2023-02-15T05:57:31;22.83;;;10.60;;
73089;SDS011;61269;49.450;8.610;2023-02-15T06:00:01;23.85;;;11.15;;
73089;SDS011;61269;49.450;8.610;2023-02-15T06:02:37;21.47;;;9.90;;
73089;SDS011;61269;49.450;8.610;2023-02-15T06:05:06;23.23;;;10.57;;
73089;SDS011;61269;49.450;8.610;2023-02-15T06:07:35;23.92;;;10.98;;
73089;SDS011;61269;49.450;8.610;2023-02-15T06:10:03;22.40;;;9.80;;
73089;SDS011;61269;49.450;8.610;2023-02-15T06:12:33;20.10;;;9.10;;
73089;SDS011;61269;49.450;8.610;2023-02-15T06:15:02;22.63;;;10.93;;
73089;SDS011;61269;49.450;8.610;2023-02-15T06:17:31;23.25;;;9.75;;
73089;SDS011;61269;49.450;8.610;2023-02-15T06:19:59;20.45;;;9.80;;
73089;SDS011;61269;49.450;8.610;2023-02-15T06:22:28;21.75;;;9.65;;
73089;SDS011;61269;49.450;8.610;2023-02-15T06:24:56;24.13;;;10.77;;
73089;SDS011;61269;49.450;8.610;2023-02-15T06:27:24;23.30;;;9.87;;
73089;SDS011;61269;49.450;8.610;2023-02-15T06:29:52;24.00;;;10.75;;
73089;SDS011;61269;49.450;8.610;2023-02-15T06:32:22;24.33;;;11.20;;
73089;SDS011;61269;49.450;8.610;2023-02-15T06:34:50;25.73;;;10.93;;
73089;SDS011;61269;49.450;8.610;2023-02-15T06:37:18;22.65;;;10.55;;
73089;SDS011;61269;49.450;8.610;2023-02-15T06:39:46;30.70;;;10.90;;
73089;SDS011;61269;49.450;8.610;2023-02-15T06:42:15;22.85;;;10.68;;
73089;SDS011;61269;49.450;8.610;2023-02-15T06:44:44;23.38;;;10.68;;
73089;SDS011;61269;49.450;8.610;2023-02-15T06:47:13;26.77;;;10.93;;
73089;SDS011;61269;49.450;8.610;2023-02-15T06:49:42;22.67;;;9.88;;
73089;SDS011;61269;49.450;8.610;2023-02-15T06:52:10;23.03;;;9.87;;
73089;SDS011;61269;49.450;8.610;2023-02-15T06:54:40;24.73;;;10.57;;
73089;SDS011;61269;49.450;8.610;2023-02-15T06:57:08;30.83;;;11.45;;
73089;SDS011;61269;49.450;8.610;2023-02-15T06:59:37;28.23;;;11.35;;
73089;SDS011;61269;49.450;8.610;2023-02-15T07:02:05;26.15;;;11.13;;
73089;SDS011;61269;49.450;8.610;2023-02-15T07:04:33;23.03;;;10.23;;
73089;SDS011;61269;49.450;8.610;2023-02-15T07:07:03;24.48;;;11.55;;
73089;SDS011;61269;49.450;8.610;2023-02-15T07:09:32;24.60;;;10.70;;
73089;SDS011;61269;49.450;8.610;2023-02-15T07:12:00;26.65;;;10.30;;
73089;SDS011;61269;49.450;8.610;2023-02-15T07:14:46;28.30;;;11.32;;
73089;SDS011;61269;49.450;8.610;2023-02-15T07:17:14;26.37;;;11.87;;
73089;SDS011;61269;49.450;8.610;2023-02-15T07:20:01;28.10;;;11.65;;
73089;SDS011;61269;49.450;8.610;2023-02-15T07:22:31;29.85;;;11.50;;
73089;SDS011;61269;49.450;8.610;2023-02-15T07:25:00;45.90;;;16.73;;
73089;SDS011;61269;49.450;8.610;2023-02-15T07:27:29;50.40;;;17.05;;
73089;SDS011;61269;49.450;8.610;2023-02-15T07:29:58;40.20;;;14.23;;
73089;SDS011;61269;49.450;8.610;2023-02-15T07:32:27;39.80;;;16.20;;
73089;SDS011;61269;49.450;8.610;2023-02-15T07:34:56;37.40;;;16.08;;
73089;SDS011;61269;49.450;8.610;2023-02-15T07:37:25;38.17;;;15.95;;
73089;SDS011;61269;49.450;8.610;2023-02-15T07:39:54;38.63;;;16.27;;
73089;SDS011;61269;49.450;8.610;2023-02-15T07:42:23;38.30;;;15.00;;
73089;SDS011;61269;49.450;8.610;2023-02-15T07:44:51;34.67;;;14.18;;
73089;SDS011;61269;49.450;8.610;2023-02-15T07:47:19;33.85;;;14.43;;
73089;SDS011;61269;49.450;8.610;2023-02-15T07:49:47;38.88;;;15.02;;
73089;SDS011;61269;49.450;8.610;2023-02-15T07:52:16;32.33;;;14.02;;
73089;SDS011;61269;49.450;8.610;2023-02-15T07:54:44;33.97;;;15.63;;
73089;SDS011;61269;49.450;8.610;2023-02-15T07:57:14;33.75;;;14.68;;
73089;SDS011;61269;49.450;8.610;2023-02-15T07:59:42;34.95;;;15.63;;
73089;SDS011;61269;49.450;8.610;2023-02-15T08:02:10;37.20;;;16.52;;
73089;SDS011;61269;49.450;8.610;2023-02-15T08:04:38;43.53;;;17.08;;
73089;SDS011;61269;49.450;8.610;2023-02-15T08:07:07;39.43;;;16.53;;
73089;SDS011;61269;49.450;8.610;2023-02-15T08:09:35;40.30;;;15.90;;
73089;SDS011;61269;49.450;8.610;2023-02-15T08:12:03;39.60;;;16.85;;
73089;SDS011;61269;49.450;8.610;2023-02-15T08:14:33;41.78;;;16.30;;
73089;SDS011;61269;49.450;8.610;2023-02-15T08:17:01;40.78;;;16.20;;
73089;SDS011;61269;49.450;8.610;2023-02-15T08:19:31;41.10;;;16.70;;
73089;SDS011;61269;49.450;8.610;2023-02-15T08:22:02;38.38;;;15.13;;
73089;SDS011;61269;49.450;8.610;2023-02-15T08:24:32;37.65;;;15.30;;
73089;SDS011;61269;49.450;8.610;2023-02-15T08:27:01;38.60;;;16.85;;
73089;SDS011;61269;49.450;8.610;2023-02-15T08:29:34;37.75;;;15.23;;
73089;SDS011;61269;49.450;8.610;2023-02-15T08:32:05;41.33;;;15.33;;
73089;SDS011;61269;49.450;8.610;2023-02-15T08:34:35;39.17;;;15.23;;
73089;SDS011;61269;49.450;8.610;2023-02-15T08:37:04;38.10;;;15.30;;
73089;SDS011;61269;49.450;8.610;2023-02-15T08:39:33;37.67;;;15.82;;
73089;SDS011;61269;49.450;8.610;2023-02-15T08:42:02;43.65;;;16.38;;
73089;SDS011;61269;49.450;8.610;2023-02-15T08:44:30;39.43;;;16.30;;
73089;SDS011;61269;49.450;8.610;2023-02-15T08:47:00;37.72;;;16.00;;
73089;SDS011;61269;49.450;8.610;2023-02-15T08:49:31;38.60;;;17.10;;
73089;SDS011;61269;49.450;8.610;2023-02-15T08:51:59;40.05;;;16.50;;
73089;SDS011;61269;49.450;8.610;2023-02-15T08:54:27;36.47;;;15.18;;
73089;SDS011;61269;49.450;8.610;2023-02-15T08:56:55;33.53;;;14.70;;
73089;SDS011;61269;49.450;8.610;2023-02-15T08:59:23;36.35;;;15.07;;
73089;SDS011;61269;49.450;8.610;2023-02-15T09:01:53;34.53;;;15.20;;
73089;SDS011;61269;49.450;8.610;2023-02-15T09:04:23;35.45;;;15.95;;
73089;SDS011;61269;49.450;8.610;2023-02-15T09:06:51;34.15;;;15.75;;
73089;SDS011;61269;49.450;8.610;2023-02-15T09:09:19;33.50;;;14.63;;
73089;SDS011;61269;49.450;8.610;2023-02-15T09:11:49;35.85;;;15.07;;
73089;SDS011;61269;49.450;8.610;2023-02-15T09:14:25;37.38;;;16.33;;
73089;SDS011;61269;49.450;8.610;2023-02-15T09:16:54;40.97;;;16.42;;
73089;SDS011;61269;49.450;8.610;2023-02-15T09:19:24;43.28;;;17.10;;
73089;SDS011;61269;49.450;8.610;2023-02-15T09:21:52;41.10;;;16.57;;
73089;SDS011;61269;49.450;8.610;2023-02-15T09:24:21;42.40;;;17.10;;
73089;SDS011;61269;49.450;8.610;2023-02-15T09:26:49;40.17;;;18.75;;
73089;SDS011;61269;49.450;8.610;2023-02-15T09:29:18;39.45;;;16.83;;
73089;SDS011;61269;49.450;8.610;2023-02-15T09:31:47;42.22;;;17.33;;
73089;SDS011;61269;49.450;8.610;2023-02-15T09:34:18;40.57;;;16.10;;
73089;SDS011;61269;49.450;8.610;2023-02-15T09:36:49;36.47;;;16.30;;
73089;SDS011;61269;49.450;8.610;2023-02-15T09:39:19;41.25;;;17.27;;
73089;SDS011;61269;49.450;8.610;2023-02-15T09:42:08;38.00;;;17.10;;
73089;SDS011;61269;49.450;8.610;2023-02-15T09:44:56;41.83;;;17.85;;
73089;SDS011;61269;49.450;8.610;2023-02-15T09:50:28;38.33;;;16.13;;
73089;SDS011;61269;49.450;8.610;2023-02-15T09:53:08;35.67;;;15.13;;
73089;SDS011;61269;49.450;8.610;2023-02-15T09:55:47;37.22;;;15.85;;
73089;SDS011;61269;49.450;8.610;2023-02-15T09:58:20;35.42;;;15.95;;
73089;SDS011;61269;49.450;8.610;2023-02-15T10:00:55;38.17;;;16.23;;
73089;SDS011;61269;49.450;8.610;2023-02-15T10:03:38;35.45;;;15.00;;
73089;SDS011;61269;49.450;8.610;2023-02-15T10:06:17;34.65;;;15.60;;
73089;SDS011;61269;49.450;8.610;2023-02-15T10:11:55;40.05;;;18.23;;
73089;SDS011;61269;49.450;8.610;2023-02-15T10:14:39;37.10;;;16.37;;
73089;SDS011;61269;49.450;8.610;2023-02-15T10:17:18;35.75;;;15.35;;
73089;SDS011;61269;49.450;8.610;2023-02-15T10:19:54;37.20;;;16.88;;
73089;SDS011;61269;49.450;8.610;2023-02-15T10:22:36;36.90;;;16.55;;
73089;SDS011;61269;49.450;8.610;2023-02-15T10:25:15;34.08;;;14.23;;
73089;SDS011;61269;49.450;8.610;2023-02-15T10:27:53;36.00;;;15.80;;
73089;SDS011;61269;49.450;8.610;2023-02-15T10:30:22;35.97;;;15.50;;
73089;SDS011;61269;49.450;8.610;2023-02-15T10:32:56;36.38;;;15.40;;
73089;SDS011;61269;49.450;8.610;2023-02-15T10:35:31;33.28;;;14.70;;
73089;SDS011;61269;49.450;8.610;2023-02-15T10:38:05;37.30;;;16.17;;
73089;SDS011;61269;49.450;8.610;2023-02-15T10:40:43;34.13;;;15.23;;
73089;SDS011;61269;49.450;8.610;2023-02-15T10:43:25;39.10;;;17.17;;
73089;SDS011;61269;49.450;8.610;2023-02-15T10:46:03;41.60;;;18.63;;
73089;SDS011;61269;49.450;8.610;2023-02-15T10:48:48;38.60;;;18.38;;
73089;SDS011;61269;49.450;8.610;2023-02-15T10:51:26;37.97;;;17.10;;
73089;SDS011;61269;49.450;8.610;2023-02-15T10:54:05;39.93;;;17.33;;
73089;SDS011;61269;49.450;8.610;2023-02-15T10:56:41;38.72;;;17.40;;
73089;SDS011;61269;49.450;8.610;2023-02-15T10:59:21;38.72;;;17.17;;
73089;SDS011;61269;49.450;8.610;2023-02-15T11:01:54;36.95;;;16.35;;
73089;SDS011;61269;49.450;8.610;2023-02-15T11:04:32;39.78;;;16.50;;
73089;SDS011;61269;49.450;8.610;2023-02-15T11:07:08;41.57;;;17.37;;
73089;SDS011;61269;49.450;8.610;2023-02-15T11:09:42;39.55;;;18.35;;
73089;SDS011;61269;49.450;8.610;2023-02-15T11:12:14;42.38;;;18.33;;
73089;SDS011;61269;49.450;8.610;2023-02-15T11:14:46;37.63;;;17.35;;
73089;SDS011;61269;49.450;8.610;2023-02-15T11:17:17;38.00;;;17.35;;
73089;SDS011;61269;49.450;8.610;2023-02-15T11:19:49;38.83;;;16.27;;
73089;SDS011;61269;49.450;8.610;2023-02-15T11:22:20;40.90;;;17.55;;
73089;SDS011;61269;49.450;8.610;2023-02-15T11:24:48;37.42;;;17.10;;
73089;SDS011;61269;49.450;8.610;2023-02-15T11:27:19;39.63;;;17.48;;
73089;SDS011;61269;49.450;8.610;2023-02-15T11:29:52;40.67;;;18.42;;
73089;SDS011;61269;49.450;8.610;2023-02-15T11:32:23;40.87;;;18.53;;
73089;SDS011;61269;49.450;8.610;2023-02-15T11:34:55;42.42;;;20.25;;
73089;SDS011;61269;49.450;8.610;2023-02-15T11:37:27;44.70;;;19.42;;
73089;SDS011;61269;49.450;8.610;2023-02-15T11:39:59;38.65;;;17.73;;
73089;SDS011;61269;49.450;8.610;2023-02-15T11:42:31;41.80;;;19.13;;
73089;SDS011;61269;49.450;8.610;2023-02-15T11:45:02;41.53;;;19.40;;
73089;SDS011;61269;49.450;8.610;2023-02-15T11:47:32;39.10;;;17.85;;
73089;SDS011;61269;49.450;8.610;2023-02-15T11:50:00;39.03;;;17.23;;
73089;SDS011;61269;49.450;8.610;2023-02-15T11:52:29;40.08;;;18.48;;
73089;SDS011;61269;49.450;8.610;2023-02-15T11:54:58;40.05;;;17.67;;
73089;SDS011;61269;49.450;8.610;2023-02-15T11:57:27;38.03;;;17.93;;
73089;SDS011;61269;49.450;8.610;2023-02-15T12:00:02;41.67;;;17.95;;
73089;SDS011;61269;49.450;8.610;2023-02-15T12:02:35;34.53;;;15.93;;
73089;SDS011;61269;49.450;8.610;2023-02-15T12:05:05;36.65;;;17.48;;
73089;SDS011;61269;49.450;8.610;2023-02-15T12:07:37;39.75;;;17.95;;
73089;SDS011;61269;49.450;8.610;2023-02-15T12:10:13;39.90;;;18.60;;
73089;SDS011;61269;49.450;8.610;2023-02-15T12:12:48;41.97;;;19.20;;
73089;SDS011;61269;49.450;8.610;2023-02-15T12:15:36;42.45;;;18.65;;
73089;SDS011;61269;49.450;8.610;2023-02-15T12:18:05;42.58;;;18.13;;
73089;SDS011;61269;49.450;8.610;2023-02-15T12:20:47;37.00;;;17.45;;
73089;SDS011;61269;49.450;8.610;2023-02-15T12:23:16;37.63;;;18.13;;
73089;SDS011;61269;49.450;8.610;2023-02-15T12:25:49;37.38;;;17.50;;
73089;SDS011;61269;49.450;8.610;2023-02-15T12:28:23;36.30;;;18.05;;
73089;SDS011;61269;49.450;8.610;2023-02-15T12:30:53;36.83;;;16.92;;
73089;SDS011;61269;49.450;8.610;2023-02-15T12:33:25;41.75;;;19.20;;
73089;SDS011;61269;49.450;8.610;2023-02-15T12:35:56;39.20;;;18.37;;
73089;SDS011;61269;49.450;8.610;2023-02-15T12:38:26;39.20;;;18.00;;
73089;SDS011;61269;49.450;8.610;2023-02-15T12:40:57;37.15;;;18.15;;
73089;SDS011;61269;49.450;8.610;2023-02-15T12:43:29;41.72;;;17.55;;
73089;SDS011;61269;49.450;8.610;2023-02-15T12:46:20;38.45;;;18.73;;
73089;SDS011;61269;49.450;8.610;2023-02-15T12:49:04;41.03;;;17.83;;
73089;SDS011;61269;49.450;8.610;2023-02-15T12:51:42;40.47;;;18.25;;
73089;SDS011;61269;49.450;8.610;2023-02-15T12:54:16;37.80;;;17.77;;
73089;SDS011;61269;49.450;8.610;2023-02-15T12:56:49;39.63;;;19.15;;
73089;SDS011;61269;49.450;8.610;2023-02-15T12:59:19;38.75;;;18.63;;
73089;SDS011;61269;49.450;8.610;2023-02-15T13:01:49;40.50;;;18.33;;
73089;SDS011;61269;49.450;8.610;2023-02-15T13:04:24;38.30;;;18.63;;
73089;SDS011;61269;49.450;8.610;2023-02-15T13:06:54;37.53;;;17.60;;
73089;SDS011;61269;49.450;8.610;2023-02-15T13:09:34;39.83;;;18.05;;
73089;SDS011;61269;49.450;8.610;2023-02-15T13:12:09;36.75;;;18.27;;
73089;SDS011;61269;49.450;8.610;2023-02-15T13:14:42;35.97;;;17.87;;
73089;SDS011;61269;49.450;8.610;2023-02-15T13:17:11;37.50;;;18.20;;
73089;SDS011;61269;49.450;8.610;2023-02-15T13:19:40;37.90;;;17.35;;
73089;SDS011;61269;49.450;8.610;2023-02-15T13:22:10;35.35;;;17.15;;
73089;SDS011;61269;49.450;8.610;2023-02-15T13:24:43;38.58;;;18.90;;
73089;SDS011;61269;49.450;8.610;2023-02-15T13:27:13;35.57;;;18.20;;
73089;SDS011;61269;49.450;8.610;2023-02-15T13:29:45;36.67;;;17.95;;
73089;SDS011;61269;49.450;8.610;2023-02-15T13:32:27;38.67;;;17.92;;
73089;SDS011;61269;49.450;8.610;2023-02-15T13:34:58;37.05;;;17.80;;
73089;SDS011;61269;49.450;8.610;2023-02-15T13:37:35;35.35;;;18.48;;
73089;SDS011;61269;49.450;8.610;2023-02-15T13:40:14;34.40;;;18.33;;
73089;SDS011;61269;49.450;8.610;2023-02-15T13:42:45;32.85;;;17.13;;
73089;SDS011;61269;49.450;8.610;2023-02-15T13:45:21;34.33;;;18.35;;
73089;SDS011;61269;49.450;8.610;2023-02-15T13:48:04;34.95;;;18.80;;
73089;SDS011;61269;49.450;8.610;2023-02-15T13:50:45;29.27;;;15.50;;
73089;SDS011;61269;49.450;8.610;2023-02-15T13:56:08;31.58;;;17.42;;
73089;SDS011;61269;49.450;8.610;2023-02-15T13:58:46;28.77;;;16.73;;
73089;SDS011;61269;49.450;8.610;2023-02-15T14:01:27;28.95;;;16.70;;
73089;SDS011;61269;49.450;8.610;2023-02-15T14:07:06;30.10;;;17.77;;
73089;SDS011;61269;49.450;8.610;2023-02-15T14:09:48;52.08;;;27.10;;
73089;SDS011;61269;49.450;8.610;2023-02-15T14:12:36;32.40;;;19.48;;
73089;SDS011;61269;49.450;8.610;2023-02-15T14:15:13;30.10;;;18.33;;
73089;SDS011;61269;49.450;8.610;2023-02-15T14:17:53;30.65;;;17.70;;
73089;SDS011;61269;49.450;8.610;2023-02-15T14:20:30;28.13;;;16.87;;
73089;SDS011;61269;49.450;8.610;2023-02-15T14:23:06;28.73;;;18.02;;
73089;SDS011;61269;49.450;8.610;2023-02-15T14:25:39;26.65;;;17.65;;
73089;SDS011;61269;49.450;8.610;2023-02-15T14:28:12;29.42;;;18.60;;
73089;SDS011;61269;49.450;8.610;2023-02-15T14:30:42;27.58;;;17.33;;
73089;SDS011;61269;49.450;8.610;2023-02-15T14:33:23;27.83;;;17.53;;
73089;SDS011;61269;49.450;8.610;2023-02-15T14:36:00;28.42;;;17.35;;
73089;SDS011;61269;49.450;8.610;2023-02-15T14:38:35;30.95;;;18.13;;
73089;SDS011;61269;49.450;8.610;2023-02-15T14:41:11;28.85;;;18.52;;
73089;SDS011;61269;49.450;8.610;2023-02-15T14:43:46;27.60;;;17.02;;
73089;SDS011;61269;49.450;8.610;2023-02-15T14:46:20;28.60;;;18.03;;
73089;SDS011;61269;49.450;8.610;2023-02-15T14:48:53;26.55;;;17.40;;
73089;SDS011;61269;49.450;8.610;2023-02-15T14:57:29;29.85;;;17.75;;
73089;SDS011;61269;49.450;8.610;2023-02-15T15:02:58;28.75;;;18.48;;
73089;SDS011;61269;49.450;8.610;2023-02-15T15:05:32;28.50;;;18.65;;
73089;SDS011;61269;49.450;8.610;2023-02-15T15:08:01;25.90;;;17.38;;
73089;SDS011;61269;49.450;8.610;2023-02-15T15:10:36;28.38;;;17.90;;
73089;SDS011;61269;49.450;8.610;2023-02-15T15:18:52;28.02;;;17.85;;
73089;SDS011;61269;49.450;8.610;2023-02-15T15:36:23;32.03;;;20.13;;
73089;SDS011;61269;49.450;8.610;2023-02-15T15:39:04;29.38;;;17.67;;
73089;SDS011;61269;49.450;8.610;2023-02-15T15:41:43;31.07;;;18.50;;
73089;SDS011;61269;49.450;8.610;2023-02-15T15:47:43;31.23;;;19.80;;
73089;SDS011;61269;49.450;8.610;2023-02-15T15:50:32;31.70;;;19.45;;
73089;SDS011;61269;49.450;8.610;2023-02-15T15:53:02;49.35;;;29.30;;